Time,TemperatureF,DewpointF,PressureIn,WindDirection,WindDirectionDegrees,WindSpeedMPH,WindSpeedGustMPH,Humidity,HourlyPrecipIn,Conditions,Clouds,dailyrainin,SoftwareType,DateUTC
2013-01-03 03:28:00,11.6,-1.0,30.11,West,275,7.0,7.0,56,0.00,,BKN049,0.00,VWS V14.00,2013-01-03 08:28:00,
2013-01-03 03:29:00,11.6,-1.0,30.11,WNW,296,4.0,9.0,56,0.00,,BKN049,0.00,VWS V14.00,2013-01-03 08:29:00,
2013-01-03 03:34:00,11.4,-1.2,30.11,West,275,5.0,6.0,56,0.00,,CLR,0.00,VWS V14.00,2013-01-03 08:34:00,
2013-01-03 03:39:00,11.2,-1.4,30.11,NW,305,9.0,9.0,56,0.00,,CLR,0.00,VWS V14.00,2013-01-03 08:39:00,
2013-01-03 03:44:00,11.1,-1.5,30.11,WNW,299,3.0,7.0,56,0.00,,CLR,0.00,VWS V14.00,2013-01-03 08:44:00,
2013-01-03 03:49:00,10.9,-1.7,30.11,NW,312,4.0,5.0,56,0.00,,CLR,0.00,VWS V14.00,2013-01-03 08:49:00,
2013-01-03 03:54:00,10.7,-1.9,30.11,WNW,295,2.0,2.0,56,0.00,,CLR,0.00,VWS V14.00,2013-01-03 08:54:00,
2013-01-03 03:59:00,10.7,-1.9,30.11,WNW,294,2.0,3.0,56,0.00,,CLR,0.00,VWS V14.00,2013-01-03 08:59:00,
2013-01-03 04:04:00,10.5,-2.1,30.11,WNW,292,4.0,5.0,56,0.00,,CLR,0.00,VWS V14.00,2013-01-03 09:04:00,
2013-01-03 04:09:00,10.2,-2.4,30.11,WNW,295,4.0,5.0,56,0.00,,CLR,0.00,VWS V14.00,2013-01-03 09:09:00,
2013-01-03 04:14:00,10.0,-2.5,30.11,WNW,296,5.0,5.0,56,0.00,,CLR,0.00,VWS V14.00,2013-01-03 09:14:00,
2013-01-03 04:19:00,9.9,-2.7,30.11,WSW,250,2.0,2.0,56,0.00,,CLR,0.00,VWS V14.00,2013-01-03 09:19:00,
2013-01-03 04:24:00,9.7,-2.8,30.11,West,265,2.0,3.0,56,0.00,,CLR,0.00,VWS V14.00,2013-01-03 09:24:00,
2013-01-03 04:29:00,9.5,-2.7,30.11,NW,317,3.0,4.0,57,0.00,,CLR,0.00,VWS V14.00,2013-01-03 09:29:00,
2013-01-03 04:34:00,9.3,-2.8,30.11,NW,305,4.0,5.0,57,0.00,,CLR,0.00,VWS V14.00,2013-01-03 09:34:00,
2013-01-03 04:39:00,9.2,-2.9,30.11,WNW,292,5.0,6.0,57,0.00,,CLR,0.00,VWS V14.00,2013-01-03 09:39:00,
2013-01-03 04:44:00,9.2,-2.9,30.11,WNW,288,2.0,9.0,57,0.00,,CLR,0.00,VWS V14.00,2013-01-03 09:44:00,
2013-01-03 04:49:00,9.0,-3.1,30.11,NW,315,1.0,5.0,57,0.00,,CLR,0.00,VWS V14.00,2013-01-03 09:49:00,
2013-01-03 04:54:00,8.8,-3.3,30.11,WNW,294,3.0,4.0,57,0.00,,CLR,0.00,VWS V14.00,2013-01-03 09:54:00,
2013-01-03 04:59:00,8.8,-3.3,30.11,WNW,282,3.0,5.0,57,0.00,,CLR,0.00,VWS V14.00,2013-01-03 09:59:00,
2013-01-03 05:04:00,8.6,-3.5,30.11,WNW,301,6.0,6.0,57,0.00,,CLR,0.00,VWS V14.00,2013-01-03 10:04:00,
2013-01-03 05:09:00,8.6,-3.5,30.11,WNW,292,5.0,7.0,57,0.00,,CLR,0.00,VWS V14.00,2013-01-03 10:09:00,
2013-01-03 05:14:00,8.6,-3.5,30.11,West,279,1.0,6.0,57,0.00,,CLR,0.00,VWS V14.00,2013-01-03 10:14:00,
2013-01-03 05:19:00,8.4,-3.7,30.11,West,278,1.0,3.0,57,0.00,,CLR,0.00,VWS V14.00,2013-01-03 10:19:00,
2013-01-03 05:24:00,8.3,-3.4,30.11,West,279,3.0,4.0,58,0.00,,CLR,0.00,VWS V14.00,2013-01-03 10:24:00,
2013-01-03 05:29:00,7.9,-3.4,30.11,WNW,283,1.0,4.0,59,0.00,,CLR,0.00,VWS V14.00,2013-01-03 10:29:00,
2013-01-03 05:34:00,7.7,-3.6,30.11,WNW,289,4.0,6.0,59,0.00,,CLR,0.00,VWS V14.00,2013-01-03 10:34:00,
2013-01-03 05:39:00,7.6,-3.4,30.11,WNW,285,4.0,4.0,60,0.00,,CLR,0.00,VWS V14.00,2013-01-03 10:39:00,
2013-01-03 05:44:00,7.4,-3.6,30.11,WNW,290,4.0,5.0,60,0.00,,CLR,0.00,VWS V14.00,2013-01-03 10:44:00,
2013-01-03 05:49:00,7.2,-3.8,30.11,WNW,296,4.0,5.0,60,0.00,,CLR,0.00,VWS V14.00,2013-01-03 10:49:00,
2013-01-03 05:54:00,7.0,-3.6,30.11,West,277,6.0,6.0,61,0.00,,CLR,0.00,VWS V14.00,2013-01-03 10:54:00,
2013-01-03 05:59:00,7.0,-3.6,30.11,WNW,300,3.0,6.0,61,0.00,,CLR,0.00,VWS V14.00,2013-01-03 10:59:00,
2013-01-03 06:05:00,6.9,-3.7,30.11,WNW,294,2.0,4.0,61,0.00,,CLR,0.00,VWS V14.00,2013-01-03 11:05:00,
2013-01-03 09:28:00,8.4,-2.6,30.13,NW,321,4.0,4.0,60,0.00,,CLR,0.00,VWS V14.00,2013-01-03 14:28:00,
2013-01-03 09:33:00,8.8,-2.6,30.14,WNW,289,3.0,4.0,59,0.00,,CLR,0.00,VWS V14.00,2013-01-03 14:33:00,
2013-01-03 09:38:00,9.0,-2.4,30.14,WNW,287,3.0,4.0,59,0.00,,CLR,0.00,VWS V14.00,2013-01-03 14:38:00,
2013-01-03 09:43:00,9.7,-2.1,30.14,WNW,294,4.0,5.0,58,0.00,,CLR,0.00,VWS V14.00,2013-01-03 14:43:00,
2013-01-03 09:48:00,10.0,-1.8,30.13,NW,317,5.0,6.0,58,0.00,,CLR,0.00,VWS V14.00,2013-01-03 14:48:00,
2013-01-03 09:53:00,10.5,-1.3,30.13,NW,304,4.0,9.0,58,0.00,,CLR,0.00,VWS V14.00,2013-01-03 14:53:00,
2013-01-03 09:58:00,10.7,-1.2,30.13,WNW,288,5.0,9.0,58,0.00,,CLR,0.00,VWS V14.00,2013-01-03 14:58:00,
2013-01-03 10:03:00,11.6,-0.3,30.12,NW,311,1.0,3.0,58,0.00,,CLR,0.00,VWS V14.00,2013-01-03 15:03:00,
2013-01-03 10:08:00,11.9,-0.4,30.12,West,276,2.0,3.0,57,0.00,,CLR,0.00,VWS V14.00,2013-01-03 15:08:00,
2013-01-03 10:13:00,12.4,0.4,30.12,NNW,334,3.0,3.0,58,0.00,,CLR,0.00,VWS V14.00,2013-01-03 15:13:00,
2013-01-03 10:18:00,12.8,0.1,30.12,NW,309,2.0,4.0,56,0.00,,CLR,0.00,VWS V14.00,2013-01-03 15:18:00,
2013-01-03 10:23:00,13.5,0.7,30.12,NW,314,0.0,2.0,56,0.00,,CLR,0.00,VWS V14.00,2013-01-03 15:23:00,
2013-01-03 10:28:00,14.4,1.6,30.12,North,360,4.0,4.0,56,0.00,,CLR,0.00,VWS V14.00,2013-01-03 15:28:00,
2013-01-03 10:34:00,14.6,1.4,30.11,WNW,294,1.0,6.0,55,0.00,,CLR,0.00,VWS V14.00,2013-01-03 15:34:00,
2013-01-03 10:39:00,14.8,2.0,30.11,NNW,345,2.0,3.0,56,0.00,,CLR,0.00,VWS V14.00,2013-01-03 15:39:00,
2013-01-03 10:44:00,14.8,1.2,30.11,NW,305,5.0,6.0,54,0.00,,CLR,0.00,VWS V14.00,2013-01-03 15:44:00,
2013-01-03 10:49:00,14.8,1.6,30.10,WSW,252,5.0,6.0,55,0.00,,CLR,0.00,VWS V14.00,2013-01-03 15:49:00,
2013-01-03 10:54:00,15.2,2.0,30.10,West,267,2.0,4.0,55,0.00,,CLR,0.00,VWS V14.00,2013-01-03 15:54:00,
2013-01-03 10:59:00,15.4,2.1,30.10,WSW,257,1.0,4.0,55,0.00,,CLR,0.00,VWS V14.00,2013-01-03 15:59:00,
2013-01-03 11:04:00,15.9,2.6,30.10,West,267,5.0,7.0,55,0.00,,CLR,0.00,VWS V14.00,2013-01-03 16:04:00,
2013-01-03 11:09:00,16.1,2.8,30.10,West,281,4.0,9.0,55,0.00,,CLR,0.00,VWS V14.00,2013-01-03 16:09:00,
2013-01-03 11:14:00,16.4,2.7,30.10,West,278,4.0,7.0,54,0.00,,CLR,0.00,VWS V14.00,2013-01-03 16:14:00,
2013-01-03 11:19:00,16.5,2.8,30.09,West,271,3.0,6.0,54,0.00,,CLR,0.00,VWS V14.00,2013-01-03 16:19:00,
2013-01-03 11:24:00,17.0,3.6,30.09,WNW,290,4.0,7.0,55,0.00,,CLR,0.00,VWS V14.00,2013-01-03 16:24:00,